createdAt,value
2018-07-21T00:01:25.542Z,4.37
2018-07-21T00:03:52.749Z,4.27
2018-07-21T00:06:19.843Z,4.23
2018-07-21T00:08:46.939Z,4.23
2018-07-21T00:11:14.171Z,4.03
2018-07-21T00:13:41.503Z,4.17
2018-07-21T00:16:08.696Z,4.23
2018-07-21T00:18:35.887Z,3.87
2018-07-21T00:21:02.997Z,4.40
2018-07-21T00:23:30.133Z,3.97
2018-07-21T00:25:57.388Z,4.70
2018-07-21T00:28:24.584Z,4.03
2018-07-21T00:30:51.696Z,4.40
2018-07-21T00:33:18.920Z,4.53
2018-07-21T00:35:46.031Z,4.40
2018-07-21T00:38:13.166Z,5.00
2018-07-21T00:40:40.425Z,4.27
2018-07-21T00:43:07.668Z,4.33
2018-07-21T00:45:34.783Z,4.33
2018-07-21T00:48:01.948Z,4.97
2018-07-21T00:50:29.601Z,5.30
2018-07-21T00:52:56.782Z,5.07
2018-07-21T00:55:24.000Z,4.83
2018-07-21T00:57:51.144Z,4.43
2018-07-21T01:00:18.354Z,4.60
2018-07-21T01:02:45.539Z,4.57
2018-07-21T01:05:12.631Z,4.70
2018-07-21T01:07:39.768Z,4.20
2018-07-21T01:10:07.425Z,4.30
2018-07-21T01:12:34.584Z,4.60
2018-07-21T01:15:01.707Z,4.47
2018-07-21T01:17:29.294Z,4.60
2018-07-21T01:19:56.443Z,4.53
2018-07-21T01:22:23.605Z,4.80
2018-07-21T01:24:50.843Z,4.53
2018-07-21T01:27:17.953Z,4.73
2018-07-21T01:29:45.087Z,4.50
2018-07-21T01:32:12.443Z,4.80
2018-07-21T01:34:39.577Z,4.90
2018-07-21T01:37:06.724Z,5.20
2018-07-21T01:39:33.886Z,5.40
2018-07-21T01:42:01.029Z,5.03
2018-07-21T01:44:28.156Z,4.77
2018-07-21T01:46:55.421Z,5.23
2018-07-21T01:49:22.560Z,5.13
2018-07-21T01:51:49.740Z,5.10
2018-07-21T01:54:16.972Z,5.10
2018-07-21T01:56:44.076Z,5.13
2018-07-21T01:59:11.215Z,5.13
2018-07-21T02:01:38.493Z,5.60
2018-07-21T02:04:05.967Z,4.93
2018-07-21T02:06:33.122Z,5.40
2018-07-21T02:09:00.300Z,5.37
2018-07-21T02:11:27.416Z,5.03
2018-07-21T02:13:54.540Z,5.30
2018-07-21T02:16:21.755Z,5.33
2018-07-21T02:18:48.901Z,5.33
2018-07-21T02:21:16.036Z,5.90
2018-07-21T02:23:43.608Z,5.63
2018-07-21T02:26:10.738Z,5.43
2018-07-21T02:28:37.861Z,5.80
2018-07-21T02:31:05.179Z,6.10
2018-07-21T02:33:32.962Z,5.60
2018-07-21T02:36:00.072Z,5.60
2018-07-21T02:38:27.224Z,6.00
2018-07-21T02:40:54.368Z,6.10
2018-07-21T02:43:21.512Z,5.97
2018-07-21T02:45:48.669Z,6.20
2018-07-21T02:48:15.806Z,6.30
2018-07-21T02:50:42.961Z,6.40
2018-07-21T02:53:10.232Z,6.23
2018-07-21T02:55:37.340Z,6.53
2018-07-21T02:58:04.524Z,6.93
2018-07-21T03:00:31.712Z,6.23
2018-07-21T03:02:58.930Z,6.40
2018-07-21T03:05:26.028Z,7.07
2018-07-21T03:07:53.212Z,6.70
2018-07-21T03:10:20.370Z,6.50
2018-07-21T03:12:47.513Z,6.40
2018-07-21T03:15:14.704Z,6.53
2018-07-21T03:17:41.829Z,6.47
2018-07-21T03:20:08.962Z,6.73
2018-07-21T03:22:36.229Z,6.20
2018-07-21T03:25:03.416Z,6.80
2018-07-21T03:27:30.548Z,6.43
2018-07-21T03:29:57.808Z,6.23
2018-07-21T03:32:24.911Z,6.80
2018-07-21T03:34:52.079Z,6.37
2018-07-21T03:37:19.211Z,7.07
2018-07-21T03:39:46.356Z,7.30
2018-07-21T03:42:13.468Z,6.00
2018-07-21T03:44:40.635Z,6.37
2018-07-21T03:47:07.767Z,6.23
2018-07-21T03:49:34.891Z,6.23
2018-07-21T03:52:02.136Z,6.50
2018-07-21T03:54:29.285Z,7.33
2018-07-21T03:56:56.415Z,6.90
2018-07-21T03:59:23.564Z,6.60
2018-07-21T04:01:50.701Z,6.60
2018-07-21T04:04:17.867Z,6.40
2018-07-21T04:06:45.036Z,6.70
2018-07-21T04:09:12.156Z,6.50
2018-07-21T04:11:39.401Z,7.20
2018-07-21T04:14:06.748Z,6.33
2018-07-21T04:16:33.901Z,6.83
2018-07-21T04:19:01.148Z,5.97
2018-07-21T04:21:28.332Z,6.03
2018-07-21T04:23:55.456Z,6.50
2018-07-21T04:26:22.641Z,6.63
2018-07-21T04:28:49.855Z,7.20
2018-07-21T04:31:16.987Z,6.80
2018-07-21T04:33:44.103Z,6.27
2018-07-21T04:36:11.292Z,6.07
2018-07-21T04:38:38.412Z,6.40
2018-07-21T04:41:05.604Z,6.60
2018-07-21T04:43:32.895Z,6.43
2018-07-21T04:46:00.033Z,6.53
2018-07-21T04:48:27.156Z,6.40
2018-07-21T04:50:54.312Z,6.60
2018-07-21T04:53:21.446Z,6.03
2018-07-21T04:55:48.598Z,6.27
2018-07-21T04:58:15.762Z,6.20
2018-07-21T05:00:42.915Z,5.80
2018-07-21T05:03:10.037Z,6.00
2018-07-21T05:05:37.337Z,5.73
2018-07-21T05:08:04.488Z,5.53
2018-07-21T05:10:31.651Z,5.80
2018-07-21T05:12:58.821Z,5.97
2018-07-21T05:15:25.981Z,5.33
2018-07-21T05:17:53.101Z,5.13
2018-07-21T05:20:20.264Z,5.60
2018-07-21T05:22:47.384Z,5.40
2018-07-21T05:25:14.532Z,5.50
2018-07-21T05:27:41.706Z,5.63
2018-07-21T05:30:08.829Z,5.60
2018-07-21T05:32:35.945Z,5.37
2018-07-21T05:35:03.255Z,4.93
2018-07-21T05:37:31.379Z,5.00
2018-07-21T05:39:58.519Z,4.43
2018-07-21T05:42:25.688Z,5.27
2018-07-21T05:44:53.672Z,5.00
2018-07-21T05:47:20.787Z,4.93
2018-07-21T05:49:48.014Z,4.60
2018-07-21T05:52:15.127Z,4.50
2018-07-21T05:54:42.299Z,4.60
2018-07-21T05:57:09.428Z,4.40
2018-07-21T05:59:36.527Z,4.33
2018-07-21T06:02:03.671Z,4.20
2018-07-21T06:04:30.948Z,3.77
2018-07-21T06:06:58.502Z,3.50
2018-07-21T06:09:25.626Z,3.20
2018-07-21T06:11:52.809Z,3.57
2018-07-21T06:14:19.954Z,3.53
2018-07-21T06:16:47.068Z,3.40
2018-07-21T06:19:14.245Z,2.90
2018-07-21T06:21:41.389Z,3.10
2018-07-21T06:24:08.516Z,2.93
2018-07-21T06:26:35.716Z,2.80
2018-07-21T06:29:02.875Z,3.10
2018-07-21T06:31:30.040Z,3.10
2018-07-21T06:33:57.268Z,2.93
2018-07-21T06:36:24.416Z,3.27
2018-07-21T06:38:51.545Z,3.00
2018-07-21T06:41:18.703Z,2.83
2018-07-21T06:43:45.838Z,3.00
2018-07-21T06:46:13.006Z,2.53
2018-07-21T06:48:40.153Z,2.90
2018-07-21T06:51:07.298Z,2.70
2018-07-21T06:53:34.443Z,2.50
2018-07-21T06:56:01.651Z,2.70
2018-07-21T06:58:28.796Z,2.10
2018-07-21T07:00:55.923Z,2.40
2018-07-21T07:03:23.188Z,2.63
2018-07-21T07:05:50.287Z,2.50
2018-07-21T07:08:17.468Z,2.30
2018-07-21T07:10:44.752Z,2.33
2018-07-21T07:13:11.884Z,2.60
2018-07-21T07:15:38.996Z,2.23
2018-07-21T07:18:06.159Z,2.50
2018-07-21T07:20:33.284Z,2.47
2018-07-21T07:23:00.421Z,2.20
2018-07-21T07:25:27.598Z,2.60
2018-07-21T07:27:54.696Z,2.40
2018-07-21T07:30:21.839Z,2.60
2018-07-21T07:32:49.060Z,2.47
2018-07-21T07:35:16.264Z,2.57
2018-07-21T07:37:43.328Z,3.13
2018-07-21T07:40:10.554Z,2.77
2018-07-21T07:42:37.687Z,2.40
2018-07-21T07:45:05.018Z,2.70
2018-07-21T07:47:32.195Z,2.20
2018-07-21T07:49:59.343Z,2.70
2018-07-21T07:52:26.495Z,2.90
2018-07-21T07:54:53.655Z,2.67
2018-07-21T07:57:20.784Z,2.50
2018-07-21T07:59:47.912Z,2.50
2018-07-21T08:02:15.072Z,2.87
2018-07-21T08:04:42.194Z,2.50
2018-07-21T08:07:09.309Z,2.60
2018-07-21T08:09:36.632Z,2.60
2018-07-21T08:12:03.789Z,2.70
2018-07-21T08:14:30.932Z,3.00
2018-07-21T08:16:58.092Z,2.70
2018-07-21T08:19:25.267Z,2.63
2018-07-21T08:21:52.412Z,2.73
2018-07-21T08:24:19.658Z,2.80
2018-07-21T08:26:46.784Z,2.67
2018-07-21T08:29:13.911Z,2.90
2018-07-21T08:31:41.125Z,2.67
2018-07-21T08:34:08.255Z,2.40
2018-07-21T08:36:35.438Z,2.80
2018-07-21T08:39:02.880Z,2.77
2018-07-21T08:41:30.016Z,3.33
2018-07-21T08:43:57.142Z,2.90
2018-07-21T08:46:24.312Z,2.80
2018-07-21T08:48:51.443Z,2.73
2018-07-21T08:51:18.601Z,3.03
2018-07-21T08:53:45.778Z,2.80
2018-07-21T08:56:12.932Z,2.80
2018-07-21T08:58:40.072Z,3.00
2018-07-21T09:01:07.283Z,2.90
2018-07-21T09:03:34.436Z,3.00
2018-07-21T09:06:01.619Z,3.10
2018-07-21T09:08:28.899Z,3.27
2018-07-21T09:10:56.177Z,3.03
2018-07-21T09:13:23.288Z,3.33
2018-07-21T09:15:50.460Z,3.03
2018-07-21T09:18:17.636Z,3.40
2018-07-21T09:20:44.805Z,3.20
2018-07-21T09:23:11.979Z,2.87
2018-07-21T09:25:39.112Z,3.13
2018-07-21T09:28:06.253Z,3.17
2018-07-21T09:30:33.446Z,3.23
2018-07-21T09:33:00.621Z,2.70
2018-07-21T09:35:27.761Z,3.00
2018-07-21T09:37:54.992Z,3.40
2018-07-21T09:40:22.183Z,3.43
2018-07-21T09:42:49.296Z,2.97
2018-07-21T09:45:16.549Z,2.87
2018-07-21T09:47:43.707Z,3.13
2018-07-21T09:50:10.890Z,3.00
2018-07-21T09:52:38.515Z,3.00
2018-07-21T09:55:06.468Z,3.03
2018-07-21T09:57:33.617Z,3.03
2018-07-21T10:00:00.792Z,3.50
2018-07-21T10:02:27.920Z,2.87
2018-07-21T10:04:55.512Z,3.07
2018-07-21T10:07:22.774Z,3.67
2018-07-21T10:09:49.893Z,3.17
2018-07-21T10:12:17.072Z,4.00
2018-07-21T10:14:44.310Z,3.67
2018-07-21T10:17:11.465Z,3.50
2018-07-21T10:19:38.577Z,3.50
2018-07-21T10:22:05.817Z,3.80
2018-07-21T10:24:38.714Z,3.60
2018-07-21T10:27:11.482Z,3.43
2018-07-21T10:29:38.637Z,3.63
2018-07-21T10:32:06.486Z,3.50
2018-07-21T10:34:33.645Z,3.90
2018-07-21T10:37:00.784Z,3.73
2018-07-21T10:39:27.904Z,3.70
2018-07-21T10:41:55.147Z,3.30
2018-07-21T10:44:22.286Z,3.70
2018-07-21T10:46:49.396Z,3.70
2018-07-21T10:49:16.547Z,4.17
2018-07-21T10:51:43.727Z,4.43
2018-07-21T10:54:10.866Z,4.27
2018-07-21T10:56:38.028Z,4.10
2018-07-21T10:59:05.184Z,4.17
2018-07-21T11:01:32.358Z,4.40
2018-07-21T11:03:59.545Z,3.97
2018-07-21T11:06:26.679Z,4.10
2018-07-21T11:08:53.819Z,4.07
2018-07-21T11:11:21.076Z,4.30
2018-07-21T11:13:48.240Z,4.47
2018-07-21T11:16:15.378Z,4.10
2018-07-21T11:18:42.567Z,3.70
2018-07-21T11:21:09.788Z,4.03
2018-07-21T11:23:36.901Z,4.73
2018-07-21T11:26:04.197Z,4.20
2018-07-21T11:28:31.720Z,3.97
2018-07-21T11:30:58.913Z,4.07
2018-07-21T11:33:26.821Z,4.30
2018-07-21T11:35:54.193Z,3.90
2018-07-21T11:38:21.186Z,4.60
2018-07-21T11:40:48.440Z,4.40
2018-07-21T11:43:15.591Z,4.40
2018-07-21T11:45:42.752Z,4.80
2018-07-21T11:48:10.144Z,3.80
2018-07-21T11:50:37.276Z,4.77
2018-07-21T11:53:04.511Z,4.80
2018-07-21T11:55:31.715Z,4.37
2018-07-21T11:57:58.836Z,4.40
2018-07-21T12:00:25.993Z,4.40
2018-07-21T12:02:53.232Z,3.90
2018-07-21T12:05:20.484Z,4.37
2018-07-21T12:07:47.603Z,4.40
2018-07-21T12:10:14.742Z,4.20
2018-07-21T12:12:41.903Z,4.20
2018-07-21T12:15:09.163Z,4.47
2018-07-21T12:17:36.357Z,4.40
2018-07-21T12:20:03.587Z,4.50
2018-07-21T12:22:30.799Z,4.75
2018-07-21T12:24:57.983Z,4.87
2018-07-21T12:27:25.160Z,4.60
2018-07-21T12:29:52.303Z,4.80
2018-07-21T12:32:19.483Z,4.65
2018-07-21T12:34:46.627Z,4.62
2018-07-21T12:37:13.776Z,4.90
2018-07-21T12:39:40.940Z,5.27
2018-07-21T12:42:08.119Z,4.97
2018-07-21T12:44:35.296Z,5.20
2018-07-21T12:47:02.500Z,4.80
2018-07-21T12:49:29.636Z,5.00
2018-07-21T12:51:56.777Z,5.20
2018-07-21T12:54:23.943Z,5.10
2018-07-21T12:56:51.129Z,5.33
2018-07-21T12:59:18.236Z,5.07
2018-07-21T13:01:45.468Z,5.10
2018-07-21T13:04:12.607Z,4.93
2018-07-21T13:06:39.892Z,4.77
2018-07-21T13:09:08.549Z,5.30
2018-07-21T13:11:35.684Z,4.77
2018-07-21T13:14:02.881Z,5.80
2018-07-21T13:16:30.113Z,5.97
2018-07-21T13:18:57.396Z,5.67
2018-07-21T13:21:24.543Z,5.70
2018-07-21T13:23:51.716Z,5.73
2018-07-21T13:26:18.868Z,5.37
2018-07-21T13:28:46.007Z,5.50
2018-07-21T13:31:13.191Z,5.23
2018-07-21T13:33:40.325Z,5.40
2018-07-21T13:36:07.441Z,5.60
2018-07-21T13:38:34.700Z,5.23
2018-07-21T13:41:01.836Z,5.80
2018-07-21T13:43:28.969Z,5.30
2018-07-21T13:45:56.189Z,5.60
2018-07-21T13:48:23.304Z,5.73
2018-07-21T13:50:50.415Z,5.40
2018-07-21T13:53:17.593Z,5.50
2018-07-21T13:55:44.760Z,5.53
2018-07-21T13:58:11.876Z,5.17
2018-07-21T14:00:39.035Z,5.23
2018-07-21T14:03:06.252Z,5.40
2018-07-21T14:05:33.453Z,5.63
2018-07-21T14:08:00.632Z,5.60
2018-07-21T14:10:27.739Z,5.90
2018-07-21T14:12:54.867Z,5.80
2018-07-21T14:15:22.061Z,5.60
2018-07-21T14:17:49.224Z,5.70
2018-07-21T14:20:16.507Z,5.47
2018-07-21T14:22:43.669Z,5.50
2018-07-21T14:25:10.804Z,6.03
2018-07-21T14:27:37.927Z,5.80
2018-07-21T14:30:06.348Z,5.40
2018-07-21T14:32:33.490Z,5.27
2018-07-21T14:35:00.635Z,5.12
2018-07-21T14:37:27.812Z,5.35
2018-07-21T14:39:54.957Z,5.33
2018-07-21T14:42:22.073Z,6.08
2018-07-21T14:44:49.319Z,5.40
2018-07-21T14:47:16.472Z,5.70
2018-07-21T14:49:43.598Z,5.25
2018-07-21T14:52:10.775Z,5.47
2018-07-21T14:54:37.958Z,5.80
2018-07-21T14:57:05.115Z,5.45
2018-07-21T14:59:32.288Z,5.65
2018-07-21T15:01:59.407Z,5.73
2018-07-21T15:04:26.528Z,5.80
2018-07-21T15:06:53.712Z,6.08
2018-07-21T15:09:20.862Z,5.58
2018-07-21T15:11:47.975Z,5.75
2018-07-21T15:14:15.163Z,5.65
2018-07-21T15:16:42.332Z,5.80
2018-07-21T15:19:09.531Z,5.45
2018-07-21T15:21:36.717Z,5.55
2018-07-21T15:24:03.889Z,6.33
2018-07-21T15:26:31.012Z,5.85
2018-07-21T15:28:58.236Z,6.00
2018-07-21T15:31:25.364Z,5.70
2018-07-21T15:33:52.518Z,5.70
2018-07-21T15:36:19.701Z,5.62
2018-07-21T15:38:46.829Z,6.05
2018-07-21T15:41:14.001Z,5.35
2018-07-21T15:43:41.257Z,5.67
2018-07-21T15:46:08.405Z,6.10
2018-07-21T15:48:35.511Z,5.80
2018-07-21T15:51:02.756Z,5.42
2018-07-21T15:53:29.941Z,5.25
2018-07-21T15:55:57.076Z,5.58
2018-07-21T15:58:24.263Z,5.60
2018-07-21T16:00:51.420Z,5.65
2018-07-21T16:03:18.533Z,5.53
2018-07-21T16:05:45.719Z,6.25
2018-07-21T16:08:12.816Z,5.87
2018-07-21T16:10:39.971Z,5.83
2018-07-21T16:13:07.280Z,5.35
2018-07-21T16:15:34.463Z,5.62
2018-07-21T16:18:01.596Z,6.17
2018-07-21T16:20:29.618Z,6.42
2018-07-21T16:22:56.807Z,6.17
2018-07-21T16:25:23.964Z,5.83
2018-07-21T16:27:51.158Z,5.37
2018-07-21T16:30:18.316Z,5.83
2018-07-21T16:32:45.432Z,5.50
2018-07-21T16:35:12.580Z,6.58
2018-07-21T16:37:39.712Z,6.17
2018-07-21T16:40:06.900Z,6.17
2018-07-21T16:42:34.083Z,5.72
2018-07-21T16:45:01.200Z,5.90
2018-07-21T16:47:28.321Z,5.95
2018-07-21T16:49:55.483Z,5.80
2018-07-21T16:52:22.616Z,6.05
2018-07-21T16:54:49.739Z,5.90
2018-07-21T16:57:16.896Z,6.00
2018-07-21T16:59:43.986Z,5.45
2018-07-21T17:02:11.087Z,5.80
2018-07-21T17:04:38.227Z,6.12
2018-07-21T17:07:05.360Z,6.67
2018-07-21T17:09:32.873Z,6.92
2018-07-21T17:12:00.129Z,6.60
2018-07-21T17:14:27.342Z,6.27
2018-07-21T17:16:54.463Z,6.30
2018-07-21T17:19:21.701Z,6.13
2018-07-21T17:21:48.896Z,6.40
2018-07-21T17:24:16.004Z,6.07
2018-07-21T17:26:43.204Z,6.10
2018-07-21T17:29:10.350Z,6.43
2018-07-21T17:31:37.502Z,5.93
2018-07-21T17:34:04.676Z,6.50
2018-07-21T17:36:31.824Z,6.27
2018-07-21T17:38:58.930Z,6.43
2018-07-21T17:41:26.223Z,5.80
2018-07-21T17:43:53.405Z,6.07
2018-07-21T17:46:20.520Z,6.53
2018-07-21T17:48:47.812Z,6.70
2018-07-21T17:51:14.987Z,6.67
2018-07-21T17:53:42.092Z,6.20
2018-07-21T17:56:10.684Z,5.90
2018-07-21T17:58:37.825Z,5.93
2018-07-21T18:01:04.999Z,6.30
2018-07-21T18:03:32.177Z,6.37
2018-07-21T18:05:59.355Z,6.07
2018-07-21T18:08:26.487Z,6.97
2018-07-21T18:10:53.672Z,6.53
2018-07-21T18:13:20.795Z,6.43
2018-07-21T18:15:47.929Z,6.63
2018-07-21T18:18:15.085Z,6.30
2018-07-21T18:20:42.270Z,6.83
2018-07-21T18:23:09.449Z,7.17
2018-07-21T18:25:36.689Z,6.60
2018-07-21T18:28:03.968Z,6.47
2018-07-21T18:30:31.104Z,6.20
2018-07-21T18:32:58.304Z,5.77
2018-07-21T18:35:25.450Z,6.17
2018-07-21T18:37:52.585Z,6.37
2018-07-21T18:40:19.765Z,6.30
2018-07-21T18:42:46.911Z,6.50
2018-07-21T18:45:14.094Z,6.47
2018-07-21T18:47:41.245Z,6.87
2018-07-21T18:50:08.404Z,6.57
2018-07-21T18:52:35.545Z,6.40
2018-07-21T18:55:02.789Z,6.40
2018-07-21T18:57:29.920Z,6.60
2018-07-21T18:59:57.041Z,6.03
2018-07-21T19:02:24.208Z,6.70
2018-07-21T19:04:51.335Z,6.20
2018-07-21T19:07:18.495Z,6.00
2018-07-21T19:09:45.661Z,6.30
2018-07-21T19:12:18.615Z,6.23
2018-07-21T19:14:45.826Z,6.30
2018-07-21T19:17:12.872Z,6.33
2018-07-21T19:19:45.835Z,6.00
2018-07-21T19:22:12.965Z,6.20
2018-07-21T19:24:40.124Z,6.50
2018-07-21T19:27:12.912Z,5.33
2018-07-21T19:29:40.057Z,5.70
2018-07-21T19:32:13.022Z,5.50
2018-07-21T19:34:40.145Z,6.13
2018-07-21T19:37:13.151Z,6.13
2018-07-21T19:39:40.268Z,6.47
2018-07-21T19:42:07.464Z,6.40
2018-07-21T19:44:34.657Z,6.77
2018-07-21T19:47:01.781Z,6.50
2018-07-21T19:49:28.889Z,6.73
2018-07-21T19:51:56.113Z,5.83
2018-07-21T19:54:23.233Z,6.33
2018-07-21T19:56:50.415Z,6.57
2018-07-21T19:59:17.635Z,6.53
2018-07-21T20:01:44.767Z,6.57
2018-07-21T20:04:11.893Z,5.73
2018-07-21T20:06:39.060Z,6.60
2018-07-21T20:09:06.661Z,6.43
2018-07-21T20:11:33.865Z,6.57
2018-07-21T20:14:01.861Z,6.07
2018-07-21T20:16:29.063Z,6.80
2018-07-21T20:18:56.177Z,6.53
2018-07-21T20:21:23.413Z,6.33
2018-07-21T20:23:50.517Z,6.33
2018-07-21T20:26:17.723Z,6.67
2018-07-21T20:28:44.966Z,6.47
2018-07-21T20:31:12.081Z,6.97
2018-07-21T20:33:39.203Z,6.63
2018-07-21T20:36:06.456Z,7.00
2018-07-21T20:38:33.594Z,7.33
2018-07-21T20:41:00.792Z,7.13
2018-07-21T20:43:27.993Z,6.87
2018-07-21T20:45:55.132Z,6.63
2018-07-21T20:48:22.291Z,6.80
2018-07-21T20:50:49.456Z,7.30
2018-07-21T20:53:16.606Z,7.60
2018-07-21T20:55:43.755Z,7.67
2018-07-21T20:58:10.991Z,7.83
2018-07-21T21:00:38.156Z,7.00
2018-07-21T21:03:05.329Z,7.13
2018-07-21T21:05:32.524Z,8.07
2018-07-21T21:07:59.635Z,7.47
2018-07-21T21:10:26.753Z,7.30
2018-07-21T21:12:54.023Z,7.20
2018-07-21T21:15:21.196Z,7.40
2018-07-21T21:17:48.382Z,7.03
2018-07-21T21:20:15.569Z,7.07
2018-07-21T21:22:42.828Z,7.70
2018-07-21T21:25:09.908Z,7.87
2018-07-21T21:27:37.215Z,7.20
2018-07-21T21:30:04.462Z,7.27
2018-07-21T21:32:31.589Z,7.77
2018-07-21T21:34:58.772Z,7.53
2018-07-21T21:37:25.904Z,7.10
2018-07-21T21:39:53.011Z,6.87
2018-07-21T21:42:20.288Z,8.00
2018-07-21T21:44:47.381Z,7.10
2018-07-21T21:47:14.544Z,7.07
2018-07-21T21:49:41.736Z,7.07
2018-07-21T21:52:08.843Z,7.73
2018-07-21T21:54:36.029Z,7.07
2018-07-21T21:57:03.254Z,7.40
2018-07-21T21:59:30.390Z,7.13
2018-07-21T22:01:57.497Z,7.93
2018-07-21T22:04:24.668Z,7.50
2018-07-21T22:06:51.809Z,7.50
2018-07-21T22:09:18.939Z,7.83
2018-07-21T22:11:46.143Z,7.30
2018-07-21T22:14:13.296Z,7.80
2018-07-21T22:16:40.464Z,6.97
2018-07-21T22:19:07.639Z,6.87
2018-07-21T22:21:34.784Z,8.87
2018-07-21T22:24:01.957Z,9.30
2018-07-21T22:26:29.238Z,7.50
2018-07-21T22:28:56.420Z,7.70
2018-07-21T22:31:23.577Z,6.67
2018-07-21T22:33:50.829Z,6.73
2018-07-21T22:36:17.948Z,7.10
2018-07-21T22:38:45.073Z,6.73
2018-07-21T22:41:12.324Z,6.33
2018-07-21T22:43:39.428Z,6.80
2018-07-21T22:46:06.612Z,6.77
2018-07-21T22:48:33.800Z,6.10
2018-07-21T22:51:00.895Z,6.80
2018-07-21T22:53:28.012Z,6.53
2018-07-21T22:55:55.194Z,6.83
2018-07-21T22:58:22.299Z,6.70
2018-07-21T23:00:49.569Z,6.70
2018-07-21T23:03:16.816Z,7.07
2018-07-21T23:05:43.948Z,7.07
2018-07-21T23:08:11.227Z,6.73
2018-07-21T23:10:38.385Z,7.20
2018-07-21T23:13:05.756Z,6.30
2018-07-21T23:15:32.771Z,7.17
2018-07-21T23:17:59.911Z,6.90
2018-07-21T23:20:27.067Z,6.47
2018-07-21T23:22:54.220Z,6.50
2018-07-21T23:25:21.400Z,6.80
2018-07-21T23:27:48.542Z,6.90
2018-07-21T23:30:15.781Z,6.83
2018-07-21T23:32:43.035Z,7.10
2018-07-21T23:35:10.164Z,8.00
2018-07-21T23:37:37.359Z,7.13
2018-07-21T23:40:04.987Z,6.80
2018-07-21T23:42:32.124Z,6.90
2018-07-21T23:44:59.257Z,6.73
2018-07-21T23:47:26.417Z,7.00
2018-07-21T23:49:53.528Z,6.53
2018-07-21T23:52:20.687Z,7.20
2018-07-21T23:54:47.839Z,7.40
2018-07-21T23:57:14.995Z,6.97
2018-07-21T23:59:42.108Z,7.63
